Latest Weather Observations for Low Head

IDT60801

Issued at 7:32 pm EDT Saturday 10 December 2016 (issued every 30 minutes, with the page automatically refreshed every 10 minutes)

About weather observations | Map of weather stations | Latest weather observations for TAS | Other Formats
Station Details ID: 091293 Name: LOW HEAD Lat: -41.05 Lon: 146.79 Height: 3.0 m
Data from the previous 72 hours. | See also: Recent months at Low Head
Date/Time
EDT
Temp
°C
App
Temp
°C
Dew
Point
°C
Rel
Hum
%
Delta-T
°C
Wind Press
QNH
hPa
Press
MSL
hPa
Rain since
9am
mm
Dir  Spd
km/h
Gust
km/h
Spd
kts
Gust
kts
10/07:00pm 15.7 8.8 11.5 76 2.3 WNW 39 46 21 25 1017.2 1017.2 0.0
10/06:30pm 15.7 8.3 11.1 74 2.5 WNW 41 50 22 27 1017.2 1017.2 0.0
10/06:00pm 16.2 8.5 11.6 74 2.5 WNW 43 54 23 29 1017.0 1017.0 0.0
10/05:30pm 16.3 9.0 11.5 73 2.6 WNW 41 48 22 26 1017.0 1017.0 0.0
10/05:00pm 16.4 8.2 11.6 73 2.6 WNW 46 54 25 29 1017.0 1017.0 0.0
10/04:30pm 16.4 8.4 11.1 71 2.8 WNW 44 54 24 29 1017.3 1017.3 0.0
10/04:00pm 16.9 8.3 11.8 72 2.8 WNW 48 57 26 31 1017.5 1017.5 0.0
10/03:30pm 16.9 9.3 11.8 72 2.8 NW 43 52 23 28 1017.7 1017.7 0.0
10/03:00pm 16.5 8.6 11.4 72 2.7 NW 44 54 24 29 1018.0 1018.0 0.0
10/02:30pm 16.4 8.6 11.3 72 2.7 NW 43 54 23 29 1018.4 1018.4 0.0
10/02:00pm 16.5 8.3 11.6 73 2.6 WNW 46 56 25 30 1018.6 1018.6 0.0
10/01:30pm 16.6 8.7 11.5 72 2.8 WNW 44 54 24 29 1018.6 1018.6 0.0
10/01:00pm 16.5 8.6 11.4 72 2.7 WNW 44 52 24 28 1018.7 1018.7 0.0
10/12:30pm 16.4 8.6 11.3 72 2.7 WNW 43 50 23 27 1019.0 1019.0 0.0
10/12:00pm 16.0 9.0 11.4 74 2.5 WNW 39 48 21 26 1019.0 1019.0 0.0
10/11:30am 15.5 8.1 11.1 75 2.3 WNW 41 46 22 25 1019.5 1019.5 0.0
10/11:00am 15.3 8.6 10.9 75 2.3 WNW 37 44 20 24 1019.4 1019.4 0.0
10/10:30am 14.6 8.1 10.4 76 2.2 WNW 35 46 19 25 1019.5 1019.5 0.0
10/10:00am 14.1 7.5 9.9 76 2.2 W 35 41 19 22 1019.7 1019.7 0.0
10/09:30am 13.8 7.1 9.8 77 2.1 W 35 43 19 23 1019.6 1019.6 0.0
10/09:00am 13.5 6.7 9.2 75 2.2 W 35 41 19 22 1019.6 1019.6 0.0
10/08:30am 13.4 5.1 9.5 77 2.0 W 43 48 23 26 1019.2 1019.2 0.0
10/08:00am 13.1 5.5 9.0 76 2.1 W 39 44 21 24 1019.1 1019.1 0.0
10/07:30am 12.8 5.9 8.7 76 2.0 W 35 43 19 23 1018.8 1018.8 0.0
10/07:00am 12.7 5.4 8.8 77 1.9 W 37 43 20 23 1018.5 1018.5 0.0
10/06:30am 12.1 4.7 8.2 77 1.9 W 37 43 20 23 1018.1 1018.1 0.0
10/06:00am 11.8 6.5 8.3 79 1.7 WSW 26 35 14 19 1018.0 1018.0 0.0
10/05:30am 11.4 6.7 7.7 78 1.8 WSW 22 30 12 16 1017.6 1017.6 0.0
10/05:00am 11.7 6.3 7.8 77 1.9 WSW 26 35 14 19 1017.4 1017.4 0.0
10/04:30am 11.0 5.8 7.1 77 1.9 WSW 24 28 13 15 1017.2 1017.2 0.0
10/04:00am 10.9 5.6 6.8 76 1.9 WSW 24 30 13 16 1017.1 1017.1 0.0
10/03:30am 10.7 5.7 6.6 76 1.9 WSW 22 26 12 14 1017.4 1017.4 0.0
10/03:00am 11.0 4.9 6.7 75 2.0 WSW 28 32 15 17 1017.4 1017.4 0.0
10/02:30am 10.8 4.7 6.7 76 1.9 WSW 28 32 15 17 1017.4 1017.4 0.0
10/02:00am 11.1 5.5 7.0 76 1.9 WSW 26 32 14 17 1017.2 1017.2 0.0
10/01:30am 11.4 5.0 7.1 75 2.1 WSW 30 35 16 19 1017.4 1017.4 0.0
10/01:00am 12.0 4.7 7.3 73 2.3 WSW 35 43 19 23 1017.5 1017.5 0.0
10/12:30am 11.8 6.9 6.9 72 2.3 WSW 22 28 12 15 1017.4 1017.4 0.0
10/12:00am 11.5 5.3 6.2 70 2.5 WSW 28 33 15 18 1017.3 1017.3 0.0
 
Date/Time
EDT
Temp
°C
App
Temp
°C
Dew
Point
°C
Rel
Hum
%
Delta-T
°C
Wind Press
QNH
hPa
Press
MSL
hPa
Rain since
9am
mm
Dir  Spd
km/h
Gust
km/h
Spd
kts
Gust
kts
09/11:30pm 11.9 5.9 7.0 72 2.3 WSW 28 37 15 20 1017.3 1017.3 0.0
09/11:00pm 11.7 5.3 6.8 72 2.3 WSW 30 35 16 19 1017.3 1017.3 0.0
09/10:30pm 12.0 5.2 6.9 71 2.4 WSW 32 39 17 21 1017.1 1017.1 0.0
09/10:00pm 12.3 4.4 6.1 66 2.9 WSW 37 44 20 24 1016.7 1016.7 0.0
09/09:30pm 12.4 6.5 6.0 65 3.0 WSW 26 33 14 18 1016.3 1016.3 0.0
09/09:00pm 12.7 5.6 6.3 65 3.0 WSW 33 41 18 22 1015.7 1015.7 0.0
09/08:30pm 13.2 4.2 6.5 64 3.2 WSW 43 54 23 29 1015.1 1015.1 0.0
09/08:00pm 13.6 3.6 6.0 60 3.6 WSW 48 57 26 31 1014.6 1014.6 0.0
09/07:30pm 14.0 4.6 7.3 64 3.3 WSW 46 57 25 31 1013.8 1013.8 0.0
09/07:00pm 14.3 4.8 6.6 60 3.7 W 46 54 25 29 1013.8 1013.8 0.0
09/06:30pm 14.7 3.6 6.5 58 4.0 WSW 54 63 29 34 1012.5 1012.5 0.0
09/06:00pm 15.1 5.6 6.9 58 4.0 W 46 56 25 30 1012.3 1012.3 0.0
09/05:30pm 15.0 5.3 7.3 60 3.8 W 48 56 26 30 1011.9 1011.9 0.0
09/05:00pm 15.2 4.7 7.3 59 3.9 W 52 59 28 32 1011.5 1011.5 0.0
09/04:30pm 15.4 4.2 7.7 60 3.8 W 56 63 30 34 1010.9 1010.9 0.0
09/04:00pm 15.4 4.8 8.4 63 3.5 W 54 65 29 35 1010.5 1010.5 0.0
09/03:30pm 16.3 5.9 7.8 57 4.3 WNW 52 59 28 32 1010.6 1010.6 0.0
09/03:00pm 15.5 4.7 7.5 59 4.0 WNW 54 63 29 34 1010.3 1010.3 0.0
09/02:30pm 16.4 7.7 8.4 59 4.1 WNW 44 54 24 29 1010.0 1010.0 0.0
09/02:00pm 16.3 7.7 8.0 58 4.2 W 43 50 23 27 1009.6 1009.6 0.0
09/01:30pm 15.9 7.8 7.1 56 4.3 W 39 48 21 26 1009.4 1009.4 0.0
09/01:00pm 15.2 5.5 6.0 54 4.4 WSW 46 57 25 31 1008.9 1008.9 0.0
09/12:30pm 15.7 6.6 5.9 52 4.7 WSW 43 54 23 29 1008.8 1008.8 0.0
09/12:09pm 15.3 7.1 6.6 56 4.2 WSW 39 52 21 28 1008.5 1008.5 0.0
09/12:02pm 16.0 7.4 4.4 46 5.4 WSW 39 52 21 28 1008.5 1008.5 0.0
09/12:00pm 15.6 7.2 5.8 52 4.7 W 39 52 21 28 1008.4 1008.4 0.0
09/11:30am 14.9 5.5 4.6 50 4.8 WSW 43 50 23 27 1008.3 1008.3 0.0
09/11:09am 15.0 7.5 4.4 49 4.9 WSW 33 52 18 28 1008.0 1008.0 0.0
09/11:00am 15.2 6.5 4.3 48 5.1 WSW 39 50 21 27 1007.9 1007.9 0.0
09/10:51am 14.8 7.4 4.2 49 4.9 WSW 32 50 17 27 1007.7 1007.7 0.0
09/10:30am 14.4 6.4 3.8 49 4.8 WSW 35 44 19 24 1007.8 1007.8 0.0
09/10:00am 14.1 6.2 4.1 51 4.6 WSW 35 46 19 25 1007.3 1007.3 0.0
09/09:30am 13.5 4.7 3.8 52 4.4 WSW 39 50 21 27 1007.1 1007.1 0.0
09/09:18am 12.9 5.0 4.6 57 3.8 WSW 35 44 19 24 1007.0 1007.0 0.0
09/09:15am 13.2 5.3 4.4 55 4.0 WSW 35 44 19 24 1006.9 1006.9 0.0
09/09:00am 12.4 5.0 4.9 60 3.5 W 33 44 18 24 1006.9 1006.9 8.6
09/08:30am 11.9 4.6 4.4 60 3.4 WSW 32 39 17 21 1006.4 1006.4 8.6
09/08:00am 11.8 4.3 4.3 60 3.4 WSW 33 41 18 22 1005.8 1005.8 8.6
09/07:30am 11.5 2.8 4.0 60 3.3 WSW 39 46 21 25 1005.2 1005.2 8.6
09/07:00am 11.2 3.3 4.4 63 3.1 WSW 35 44 19 24 1004.4 1004.4 8.6
09/06:30am 11.0 3.2 5.1 67 2.7 WSW 35 44 19 24 1003.8 1003.8 8.6
09/06:00am 10.9 2.0 5.0 67 2.7 WSW 41 46 22 25 1003.1 1003.1 8.6
09/05:30am 11.1 1.7 5.2 67 2.7 WSW 44 54 24 29 1002.0 1002.0 8.6
09/05:00am 11.3 1.1 5.2 66 2.8 WSW 48 56 26 30 1001.3 1001.3 8.6
09/04:30am 11.4 0.8 5.3 66 2.8 WSW 50 63 27 34 1000.4 1000.4 8.6
09/04:00am 11.7 1.6 5.8 67 2.8 WSW 48 59 26 32 999.9 999.9 8.6
09/03:30am 11.9 2.0 6.4 69 2.6 WSW 48 57 26 31 999.2 999.2 8.6
09/03:00am 12.1 2.2 6.6 69 2.6 WSW 48 59 26 32 998.8 998.8 8.6
09/02:30am 12.3 2.1 7.0 70 2.5 WSW 50 57 27 31 998.2 998.2 8.6
09/02:00am 12.5 2.0 7.2 70 2.6 WSW 52 61 28 33 997.6 997.6 8.6
09/01:30am 12.6 2.2 7.7 72 2.4 W 52 63 28 34 997.3 997.3 8.6
09/01:00am 12.8 2.1 7.9 72 2.4 W 54 63 29 34 996.8 996.8 8.6
09/12:30am 13.1 2.8 8.2 72 2.4 W 52 65 28 35 996.3 996.3 8.6
09/12:00am 13.3 2.2 8.2 71 2.6 W 56 69 30 37 995.8 995.8 8.6
 
Date/Time
EDT
Temp
°C
App
Temp
°C
Dew
Point
°C
Rel
Hum
%
Delta-T
°C
Wind Press
QNH
hPa
Press
MSL
hPa
Rain since
9am
mm
Dir  Spd
km/h
Gust
km/h
Spd
kts
Gust
kts
08/11:30pm 13.7 2.3 9.0 73 2.4 W 59 69 32 37 995.0 995.0 8.6
08/11:00pm 13.4 3.4 9.5 77 2.0 W 52 65 28 35 995.0 995.0 8.6
08/10:30pm 13.6 3.7 9.8 78 2.0 W 52 65 28 35 994.1 994.1 8.6
08/10:00pm 13.7 3.2 10.3 80 1.8 WNW 56 67 30 36 993.7 993.7 8.6
08/09:30pm 13.7 3.6 10.3 80 1.8 WNW 54 65 29 35 993.2 993.2 8.6
08/09:00pm 13.8 3.3 10.4 80 1.8 WNW 56 67 30 36 992.6 992.6 8.6
08/08:30pm 13.9 2.9 10.7 81 1.7 WNW 59 70 32 38 991.9 991.9 8.6
08/08:00pm 13.7 2.4 10.7 82 1.6 WNW 61 72 33 39 991.6 991.6 8.6
08/07:30pm 13.8 2.1 10.8 82 1.6 WNW 63 80 34 43 990.8 990.8 8.6
08/07:19pm 13.9 2.6 10.9 82 1.6 WNW 61 80 33 43 990.7 990.7 8.6
08/07:00pm 14.1 2.9 11.1 82 1.6 WNW 61 72 33 39 990.6 990.6 8.6
08/06:30pm 14.3 3.5 11.3 82 1.6 WNW 59 72 32 39 990.0 990.0 8.6
08/06:00pm 14.5 4.7 11.3 81 1.7 NW 54 72 29 39 989.9 989.9 8.6
08/05:39pm 15.0 4.6 11.2 78 2.0 NW 57 76 31 41 989.5 989.5 8.6
08/05:30pm 15.2 4.0 11.2 77 2.1 NW 61 78 33 42 989.3 989.3 8.6
08/05:02pm 15.3 5.3 12.1 81 1.7 NW 56 74 30 40 989.1 989.1 8.6
08/05:00pm 15.5 5.6 12.3 81 1.8 NW 56 70 30 38 989.1 989.1 8.6
08/04:30pm 15.5 5.3 11.9 79 2.0 NNW 57 70 31 38 989.6 989.6 8.6
08/04:20pm 15.2 5.9 11.8 80 1.8 NNW 52 70 28 38 989.8 989.8 8.6
08/04:00pm 15.4 6.0 11.6 78 2.1 NW 52 63 28 34 990.2 990.2 8.6
08/03:39pm 15.6 5.8 11.6 77 2.2 NW 54 72 29 39 990.6 990.6 8.6
08/03:30pm 15.5 6.0 11.3 76 2.3 NW 52 65 28 35 990.6 990.6 8.6
08/03:00pm 15.7 6.7 11.5 76 2.3 NNW 50 61 27 33 991.2 991.2 8.6
08/02:30pm 15.9 8.8 12.1 78 2.1 NW 41 50 22 27 991.7 991.7 8.6
08/02:00pm 16.1 9.8 13.6 85 1.4 NW 39 44 21 24 992.0 992.0 8.6
08/01:30pm 15.5 8.4 13.9 90 0.9 NW 44 54 24 29 992.1 992.1 8.6
08/01:00pm 14.6 8.3 13.5 93 0.6 NW 39 54 21 29 992.1 992.1 8.6
08/12:50pm 14.7 7.5 13.6 93 0.6 NNW 44 59 24 32 992.4 992.4 8.6
08/12:30pm 15.2 7.1 14.4 95 0.5 N 50 65 27 35 992.2 992.2 8.6
08/12:16pm 15.1 7.0 14.3 95 0.5 N 50 69 27 37 991.8 991.8 8.6
08/12:00pm 14.9 6.3 14.1 95 0.5 NNE 52 61 28 33 991.7 991.7 8.4
08/11:30am 14.9 6.3 13.9 94 0.6 NNE 52 61 28 33 991.8 991.8 7.4
08/11:00am 15.1 6.1 14.1 94 0.6 NNE 54 65 29 35 992.0 992.0 6.6
08/10:30am 15.0 6.0 14.0 94 0.6 NE 54 63 29 34 992.3 992.3 4.8
08/10:00am 15.1 5.2 14.0 93 0.6 NE 59 69 32 37 992.9 992.9 2.4
08/09:30am 14.9 4.6 14.1 95 0.5 NE 61 72 33 39 994.0 994.0 2.0
08/09:00am 14.9 5.3 13.9 94 0.6 ENE 57 70 31 38 995.7 995.7 8.6
08/08:30am 14.8 6.5 13.7 93 0.6 ENE 50 56 27 30 997.2 997.2 6.2
08/08:00am 14.2 7.3 12.9 92 0.7 ENE 41 50 22 27 998.3 998.3 4.6
08/07:30am 14.2 9.0 12.8 91 0.8 ENE 32 39 17 21 998.9 998.9 3.6
08/07:00am 13.0 8.9 11.4 90 0.9 E 24 30 13 16 999.3 999.3 3.2
08/06:30am 12.7 8.9 11.1 90 0.8 E 22 28 12 15 999.8 999.8 1.8
08/06:00am 13.0 9.6 11.2 89 1.0 E 20 26 11 14 1000.6 1000.6 1.0
08/05:30am 12.9 11.6 11.1 89 0.9 ESE 9 13 5 7 1001.8 1001.8 0.2
08/05:00am 12.3 9.3 10.7 90 0.8 ESE 17 30 9 16 1000.7 1000.7 0.0
08/04:30am 12.5 10.7 10.9 90 0.8 ESE 11 19 6 10 1002.2 1002.2 0.0
08/04:00am 12.4 10.9 10.6 89 0.9 SE 9 13 5 7 1003.5 1003.5 0.0
08/03:30am 12.3 10.4 10.5 89 0.9 ESE 11 15 6 8 1003.3 1003.3 0.0
08/03:00am 13.0 9.8 11.1 88 1.0 E 19 20 10 11 1003.9 1003.9 0.0
08/02:30am 13.7 10.0 11.6 87 1.1 ENE 22 28 12 15 1004.8 1004.8 0.0
08/02:00am 14.3 10.1 12.3 88 1.1 NE 26 30 14 16 1005.6 1005.6 0.0
08/01:30am 14.4 9.5 12.6 89 1.0 NE 30 37 16 20 1006.1 1006.1 0.0
08/01:00am 14.5 9.6 12.7 89 1.0 NE 30 33 16 18 1006.8 1006.8 0.0
08/12:30am 14.2 10.1 12.8 91 0.8 NE 26 30 14 16 1007.6 1007.6 0.0
08/12:00am 12.7 9.8 11.1 90 0.8 ENE 17 19 9 10 1008.2 1008.2 0.0
 
Date/Time
EDT
Temp
°C
App
Temp
°C
Dew
Point
°C
Rel
Hum
%
Delta-T
°C
Wind Press
QNH
hPa
Press
MSL
hPa
Rain since
9am
mm
Dir  Spd
km/h
Gust
km/h
Spd
kts
Gust
kts
07/11:30pm 12.8 10.7 11.0 89 0.9 E 13 15 7 8 1008.3 1008.3 0.0
07/11:00pm 13.5 11.5 11.6 88 1.0 E 13 15 7 8 1008.7 1008.7 0.0
07/10:30pm 14.5 13.2 12.4 87 1.1 NNE 11 13 6 7 1008.8 1008.8 0.0
07/10:00pm 14.6 13.2 12.1 85 1.4 N 11 13 6 7 1009.1 1009.1 0.0
07/09:30pm 14.7 13.6 11.8 83 1.6 NNW 9 11 5 6 1009.5 1009.5 0.0
07/09:00pm 14.7 13.1 11.5 81 1.7 WNW 11 13 6 7 1009.6 1009.6 0.0
07/08:30pm 15.0 12.6 11.4 79 1.9 NW 15 17 8 9 1010.0 1010.0 0.0
07/08:00pm 15.5 12.7 11.5 77 2.2 NW 17 20 9 11 1010.4 1010.4 0.0

Other Formats:

Comma delimited format used in spreadsheet applications
http://www.bom.gov.au/fwo/IDT60801/IDT60801.95964.axf

JavaScript Object Notation format (JSON) in row-major order
http://www.bom.gov.au/fwo/IDT60801/IDT60801.95964.json